Time;durP1;ratioP1;P1;durP2;ratioP2;P2;SDS_P1;SDS_P2;PMS_P1;PMS_P2;Temp;Humidity;BMP_temperature;BMP_pressure;BME280_temperature;BME280_humidity;BME280_pressure;Samples;Min_cycle;Max_cycle;Signal;HPM_P1;HPM_P2
2021/03/27 00:00:21;;;;;;;23.43;19.97;;;4.10;99.90;;;;;;4873196;28;20602;-78
2021/03/27 00:02:50;;;;;;;24.57;19.93;;;4.10;99.90;;;;;;4853857;28;20218;-82
2021/03/27 00:05:17;;;;;;;25.53;20.50;;;4.10;1.00;;;;;;4854512;28;20240;-76
2021/03/27 00:07:51;;;;;;;26.97;21.00;;;4.20;1.00;;;;;;4873812;28;20185;-81
2021/03/27 00:10:20;;;;;;;25.00;19.47;;;4.20;99.90;;;;;;4854373;28;20233;-79
2021/03/27 00:12:46;;;;;;;24.37;19.47;;;4.20;99.90;;;;;;4872833;28;20205;-81
2021/03/27 00:15:19;;;;;;;23.23;18.83;;;4.20;99.90;;;;;;4873235;28;20197;-82
2021/03/27 00:17:48;;;;;;;22.37;19.07;;;4.20;99.90;;;;;;4854451;28;20252;-81
2021/03/27 00:20:15;;;;;;;25.70;20.57;;;4.30;99.90;;;;;;4873461;28;20193;-74
2021/03/27 00:22:43;;;;;;;23.97;19.90;;;4.30;99.90;;;;;;4870895;28;20205;-83
2021/03/27 00:25:14;;;;;;;23.90;19.13;;;4.30;99.90;;;;;;4873077;28;20201;-83
2021/03/27 00:27:42;;;;;;;24.03;20.13;;;4.20;1.00;;;;;;4868009;28;20203;-84
2021/03/27 00:30:08;;;;;;;26.77;21.03;;;4.20;1.00;;;;;;4857465;28;20652;-81
2021/03/27 00:32:35;;;;;;;28.00;20.47;;;4.10;1.00;;;;;;4834225;28;20758;-83
2021/03/27 00:35:02;;;;;;;26.60;22.20;;;4.10;1.00;;;;;;4872284;28;20260;-78
2021/03/27 00:37:27;;;;;;;22.97;20.10;;;4.10;1.00;;;;;;4857615;28;20687;-84
2021/03/27 00:39:54;;;;;;;25.93;19.63;;;4.00;99.90;;;;;;4857253;28;20247;-84
2021/03/27 00:42:20;;;;;;;23.53;20.70;;;4.00;99.90;;;;;;4856486;28;20190;-79
2021/03/27 00:44:48;;;;;;;26.40;21.50;;;4.00;1.00;;;;;;4873484;28;20229;-80
2021/03/27 00:47:14;;;;;;;27.67;22.30;;;4.00;1.00;;;;;;4872344;28;20606;-82
2021/03/27 00:49:46;;;;;;;29.73;22.10;;;4.00;99.90;;;;;;4857553;28;20810;-80
2021/03/27 00:52:12;;;;;;;26.60;21.50;;;3.90;1.00;;;;;;4857450;28;20201;-82
2021/03/27 00:54:42;;;;;;;31.80;25.50;;;4.10;1.00;;;;;;4874613;28;20620;-83
2021/03/27 00:57:10;;;;;;;30.40;24.53;;;4.10;1.00;;;;;;4857721;28;20202;-81
2021/03/27 00:59:36;;;;;;;29.10;22.60;;;4.20;12.60;;;;;;4862991;28;20239;-78
2021/03/27 01:02:15;;;;;;;27.90;22.93;;;4.30;99.90;;;;;;4854429;28;20283;-80
2021/03/27 01:05:08;;;;;;;32.50;24.27;;;4.30;1.00;;;;;;4875009;28;20624;-79
2021/03/27 01:07:52;;;;;;;28.20;22.70;;;4.40;1.00;;;;;;4827629;28;20201;-83
2021/03/27 01:10:37;;;;;;;30.93;22.80;;;4.40;1.00;;;;;;4867226;28;20217;-82
2021/03/27 01:13:23;;;;;;;30.07;24.23;;;4.40;1.00;;;;;;4874407;28;20246;-84
2021/03/27 01:15:51;;;;;;;27.47;22.23;;;4.40;99.90;;;;;;4857268;28;20194;-80
2021/03/27 01:18:23;;;;;;;27.90;22.50;;;4.40;99.90;;;;;;4873420;28;20276;-82
2021/03/27 01:20:49;;;;;;;28.13;22.20;;;4.40;99.90;;;;;;4855312;28;20219;-84
2021/03/27 01:23:12;;;;;;;26.27;22.70;;;4.40;99.90;;;;;;4874269;28;20192;-82
2021/03/27 01:25:37;;;;;;;28.03;22.20;;;4.40;99.90;;;;;;4873270;28;20189;-79
2021/03/27 01:28:05;;;;;;;29.37;22.13;;;4.30;99.90;;;;;;4873464;28;20201;-84
2021/03/27 01:30:34;;;;;;;27.07;22.60;;;4.30;99.90;;;;;;4855460;28;20247;-79
2021/03/27 01:33:02;;;;;;;28.10;22.70;;;4.30;99.90;;;;;;4857440;28;20297;-81
2021/03/27 01:35:31;;;;;;;30.17;23.57;;;4.20;1.00;;;;;;4858126;28;20287;-84
2021/03/27 01:37:56;;;;;;;28.37;23.80;;;4.30;99.90;;;;;;4858146;28;20256;-83
2021/03/27 01:40:30;;;;;;;28.53;23.83;;;4.30;99.90;;;;;;4857076;28;20228;-84
2021/03/27 01:43:04;;;;;;;26.43;22.50;;;4.40;1.00;;;;;;4874758;28;20201;-84
2021/03/27 01:46:00;;;;;;;28.83;23.60;;;4.40;99.90;;;;;;4857891;28;20271;-82
2021/03/27 01:52:15;;;;;;;30.63;24.70;;;4.40;99.90;;;;;;4876022;28;20165;-84
2021/03/27 01:54:49;;;;;;;29.03;23.23;;;4.50;99.90;;;;;;4868526;28;20638;-79
2021/03/27 01:57:26;;;;;;;34.33;27.53;;;4.50;95.00;;;;;;4875852;28;20254;-79
2021/03/27 01:59:52;;;;;;;35.67;28.43;;;4.60;1.00;;;;;;4875787;28;20595;-82
2021/03/27 02:02:26;;;;;;;31.13;25.00;;;4.60;1.00;;;;;;4874091;28;20540;-85
2021/03/27 02:04:54;;;;;;;28.60;24.13;;;4.60;1.00;;;;;;4875001;28;20212;-82
2021/03/27 02:07:31;;;;;;;31.93;25.50;;;4.60;1.00;;;;;;4874818;28;20262;-82
2021/03/27 02:10:03;;;;;;;28.67;23.73;;;4.70;1.00;;;;;;4857791;28;20190;-78
2021/03/27 02:12:42;;;;;;;31.07;25.10;;;4.70;1.00;;;;;;4857558;28;20785;-81
2021/03/27 02:15:12;;;;;;;30.67;23.87;;;4.70;1.00;;;;;;4860250;28;20588;-81
2021/03/27 02:17:41;;;;;;;32.13;24.53;;;4.70;1.00;;;;;;4867952;28;20679;-80
2021/03/27 02:20:36;;;;;;;26.73;22.63;;;4.70;99.90;;;;;;4875208;28;20676;-82
2021/03/27 02:23:07;;;;;;;27.03;23.30;;;4.60;99.90;;;;;;4855150;28;20738;-81
2021/03/27 02:25:51;;;;;;;26.63;23.37;;;4.60;99.90;;;;;;4872222;28;20281;-85
2021/03/27 02:28:31;;;;;;;30.73;24.33;;;4.50;99.90;;;;;;4857080;28;20244;-79
2021/03/27 02:31:03;;;;;;;26.70;22.37;;;4.40;99.90;;;;;;4880843;28;20238;-84
2021/03/27 02:33:47;;;;;;;27.57;22.97;;;4.30;99.90;;;;;;4893321;28;20250;-83
2021/03/27 02:36:20;;;;;;;29.17;23.27;;;4.20;99.90;;;;;;4892928;28;20230;-82
2021/03/27 02:38:59;;;;;;;27.97;22.73;;;4.10;99.90;;;;;;4876865;28;20182;-81
2021/03/27 02:41:40;;;;;;;27.93;23.07;;;4.00;99.90;;;;;;4877865;28;20247;-81
2021/03/27 02:44:08;;;;;;;31.17;23.83;;;3.80;99.90;;;;;;4861023;28;20263;-80
2021/03/27 02:46:35;;;;;;;26.33;22.90;;;3.70;99.90;;;;;;4872083;28;20181;-83
2021/03/27 02:49:11;;;;;;;28.63;23.17;;;3.60;1.00;;;;;;4878041;28;20186;-78
2021/03/27 02:51:39;;;;;;;29.23;24.13;;;3.30;1.00;;;;;;4878364;28;20193;-81
2021/03/27 02:54:17;;;;;;;29.47;23.53;;;3.30;52.40;;;;;;4844985;28;20190;-83
2021/03/27 02:56:53;;;;;;;31.67;24.50;;;3.30;99.90;;;;;;4872847;28;20226;-83
2021/03/27 02:59:30;;;;;;;34.83;25.53;;;3.10;1.00;;;;;;4877803;28;20271;-83
2021/03/27 03:02:01;;;;;;;31.80;25.37;;;3.00;99.90;;;;;;4875493;28;20221;-82
2021/03/27 03:04:36;;;;;;;32.33;26.03;;;3.00;1.00;;;;;;4877361;28;20239;-84
2021/03/27 03:07:05;;;;;;;36.53;26.73;;;2.80;99.90;;;;;;4860702;28;20198;-83
2021/03/27 03:09:35;;;;;;;38.37;28.53;;;2.70;98.10;;;;;;4860590;28;20186;-82
2021/03/27 03:12:11;;;;;;;36.07;28.00;;;2.70;1.00;;;;;;4844422;28;20303;-79
2021/03/27 03:14:40;;;;;;;32.47;25.80;;;2.70;99.90;;;;;;4853408;28;20219;-78
2021/03/27 03:17:15;;;;;;;33.33;26.43;;;2.70;1.00;;;;;;4877733;28;20185;-78
2021/03/27 03:19:44;;;;;;;32.23;25.13;;;2.50;1.00;;;;;;4877040;28;20201;-82
2021/03/27 03:22:13;;;;;;;31.47;25.53;;;2.40;1.00;;;;;;4877184;28;20550;-80
2021/03/27 03:24:40;;;;;;;35.40;26.07;;;2.40;1.00;;;;;;4844030;28;20225;-82
2021/03/27 03:27:14;;;;;;;30.73;24.37;;;2.40;99.90;;;;;;4877212;28;20239;-75
2021/03/27 03:29:50;;;;;;;33.20;25.47;;;2.30;99.90;;;;;;4855110;28;21124;-83
2021/03/27 03:32:24;;;;;;;33.23;26.00;;;2.20;99.90;;;;;;4878694;28;20173;-81
2021/03/27 03:35:07;;;;;;;30.27;24.37;;;2.20;99.90;;;;;;4859189;28;20263;-79
2021/03/27 03:37:54;;;;;;;32.00;23.63;;;2.30;99.90;;;;;;4870817;28;20173;-82
2021/03/27 03:40:25;;;;;;;34.23;25.27;;;2.00;99.90;;;;;;4877952;28;20185;-79
2021/03/27 03:43:01;;;;;;;29.33;23.40;;;1.90;99.90;;;;;;4877230;28;20193;-76
2021/03/27 03:45:44;;;;;;;32.33;24.40;;;1.90;99.90;;;;;;4875833;28;20298;-80
2021/03/27 03:48:16;;;;;;;32.77;25.50;;;1.80;99.90;;;;;;4873974;28;20198;-76
2021/03/27 03:50:46;;;;;;;37.57;27.50;;;1.80;99.90;;;;;;4875891;28;20247;-80
2021/03/27 03:53:30;;;;;;;33.80;24.67;;;1.80;1.00;;;;;;4876191;28;20647;-80
2021/03/27 03:56:12;;;;;;;34.77;25.87;;;1.80;1.00;;;;;;4842629;28;20194;-79
2021/03/27 03:58:58;;;;;;;31.80;23.57;;;1.80;1.00;;;;;;4854074;28;20185;-82
2021/03/27 04:01:34;;;;;;;34.50;24.17;;;1.80;1.00;;;;;;4873829;28;20217;-78
2021/03/27 04:04:03;;;;;;;35.40;24.37;;;1.90;1.00;;;;;;4875409;28;20302;-79
2021/03/27 04:06:28;;;;;;;30.50;23.50;;;2.00;1.00;;;;;;4859144;28;20619;-82
2021/03/27 04:08:56;;;;;;;28.30;22.93;;;2.00;1.00;;;;;;4877246;28;20247;-83
2021/03/27 04:11:38;;;;;;;27.27;21.90;;;2.10;1.00;;;;;;4875975;28;20220;-83
2021/03/27 04:14:57;;;;;;;31.17;23.20;;;2.00;1.00;;;;;;4862503;28;20583;-82
2021/03/27 04:17:48;;;;;;;33.17;24.33;;;2.00;1.00;;;;;;4869963;28;20178;-83
2021/03/27 04:20:59;;;;;;;36.30;24.77;;;2.00;1.00;;;;;;4868992;28;20177;-83
2021/03/27 04:23:46;;;;;;;31.93;24.07;;;1.90;1.00;;;;;;4870607;28;20540;-80
2021/03/27 04:26:40;;;;;;;33.37;24.77;;;1.90;1.00;;;;;;4875021;28;20193;-81
2021/03/27 04:29:34;;;;;;;30.37;23.60;;;1.90;1.00;;;;;;4876026;28;20185;-80
2021/03/27 04:32:31;;;;;;;33.30;24.30;;;2.00;1.00;;;;;;4861977;28;20191;-81
2021/03/27 04:35:36;;;;;;;29.90;23.70;;;2.00;1.00;;;;;;4876060;28;20185;-83
2021/03/27 04:38:34;;;;;;;31.63;23.53;;;2.00;1.00;;;;;;4863011;28;20207;-79
2021/03/27 04:41:30;;;;;;;33.27;24.47;;;2.10;1.00;;;;;;4876894;28;20207;-80
2021/03/27 04:44:22;;;;;;;30.43;22.80;;;2.10;1.00;;;;;;4876045;28;20181;-81
2021/03/27 04:47:12;;;;;;;29.50;22.50;;;2.10;1.00;;;;;;4862234;28;20181;-82
2021/03/27 04:49:56;;;;;;;32.67;24.00;;;2.20;1.00;;;;;;4871928;28;20181;-82
2021/03/27 04:52:42;;;;;;;29.90;22.30;;;2.40;1.00;;;;;;4871222;28;20273;-82
2021/03/27 04:55:31;;;;;;;30.60;23.23;;;2.40;1.00;;;;;;4875492;28;20209;-80
2021/03/27 04:58:24;;;;;;;33.63;24.30;;;2.50;1.00;;;;;;4875859;28;20581;-84
2021/03/27 05:01:19;;;;;;;35.40;25.13;;;2.60;1.00;;;;;;4874186;28;20217;-80
2021/03/27 05:03:50;;;;;;;31.03;22.93;;;2.70;1.00;;;;;;4852479;28;20205;-81
2021/03/27 05:06:20;;;;;;;30.53;23.03;;;2.80;1.00;;;;;;4858414;28;20531;-80
2021/03/27 05:09:03;;;;;;;28.07;22.67;;;2.90;1.00;;;;;;4875241;28;20243;-81
2021/03/27 05:11:39;;;;;;;26.70;22.03;;;3.10;1.00;;;;;;4857764;28;20233;-83
2021/03/27 05:14:11;;;;;;;27.80;22.20;;;3.20;1.00;;;;;;4859685;28;20239;-84
2021/03/27 05:16:38;;;;;;;29.13;22.03;;;3.40;1.00;;;;;;4869329;28;20652;-82
2021/03/27 05:19:05;;;;;;;26.83;22.43;;;3.50;1.00;;;;;;4875117;28;20713;-76
2021/03/27 05:21:46;;;;;;;27.93;22.63;;;3.60;1.00;;;;;;4875405;28;20205;-76
2021/03/27 05:24:21;;;;;;;27.50;21.90;;;3.70;1.00;;;;;;4874853;28;20205;-80
2021/03/27 05:26:55;;;;;;;27.40;21.60;;;3.80;1.00;;;;;;4875163;28;20208;-83
2021/03/27 05:29:44;;;;;;;27.93;21.87;;;3.90;1.00;;;;;;4857909;28;20655;-78
2021/03/27 05:32:31;;;;;;;26.07;20.57;;;4.00;99.90;;;;;;4875076;28;20227;-79
2021/03/27 05:34:55;;;;;;;26.83;20.03;;;4.10;99.90;;;;;;4840590;28;20252;-79
2021/03/27 05:37:38;;;;;;;29.20;21.27;;;4.10;83.80;;;;;;4867562;28;20244;-83
2021/03/27 05:40:26;;;;;;;28.07;21.10;;;4.10;1.00;;;;;;4874743;28;20703;-82
2021/03/27 05:43:08;;;;;;;26.93;21.97;;;4.20;1.00;;;;;;4837968;28;20190;-82
2021/03/27 05:46:16;;;;;;;27.90;21.90;;;4.10;99.90;;;;;;4874268;28;20174;-85
2021/03/27 05:49:14;;;;;;;36.70;27.93;;;4.10;99.90;;;;;;4869316;28;20197;-81
2021/03/27 05:52:13;;;;;;;46.70;34.90;;;4.10;1.00;;;;;;4858313;28;20272;-83
2021/03/27 05:55:03;;;;;;;50.57;38.87;;;4.20;1.00;;;;;;4853541;28;20260;-85
2021/03/27 05:57:43;;;;;;;51.33;39.40;;;4.20;1.00;;;;;;4875921;28;20174;-82
2021/03/27 06:00:32;;;;;;;54.17;39.70;;;4.20;1.00;;;;;;4874178;28;20630;-82
2021/03/27 06:03:37;;;;;;;47.87;37.17;;;4.30;1.00;;;;;;4857738;28;20611;-78
2021/03/27 06:06:31;;;;;;;41.80;31.97;;;4.40;1.00;;;;;;4854532;28;20589;-79
2021/03/27 06:09:29;;;;;;;40.37;31.93;;;4.60;1.00;;;;;;4831980;28;20272;-78
2021/03/27 06:12:13;;;;;;;29.30;22.13;;;4.80;1.00;;;;;;4847987;28;20255;-77
2021/03/27 06:14:51;;;;;;;25.00;19.47;;;5.00;1.00;;;;;;4856792;28;20197;-84
2021/03/27 06:17:28;;;;;;;24.10;18.90;;;5.30;99.90;;;;;;4861734;28;20538;-81
2021/03/27 06:20:33;;;;;;;29.00;23.47;;;5.50;1.00;;;;;;4879822;28;20181;-80
2021/03/27 06:23:28;;;;;;;24.63;19.17;;;5.80;99.90;;;;;;4838977;28;20201;-83
2021/03/27 06:26:28;;;;;;;23.03;19.23;;;6.00;1.00;;;;;;4858487;28;20695;-79
2021/03/27 06:29:23;;;;;;;20.17;16.00;;;6.20;1.00;;;;;;4860567;28;20313;-80
2021/03/27 06:32:26;;;;;;;16.43;14.40;;;6.40;11.00;;;;;;4878257;28;20243;-78
2021/03/27 06:34:59;;;;;;;14.03;11.63;;;6.60;99.90;;;;;;4851576;28;20283;-79
2021/03/27 06:38:05;;;;;;;10.03;9.00;;;6.80;1.00;;;;;;4878442;28;20202;-77
2021/03/27 06:41:08;;;;;;;9.70;8.70;;;7.10;99.90;;;;;;4862097;28;20201;-78
2021/03/27 06:44:08;;;;;;;9.87;8.87;;;7.40;1.00;;;;;;4846075;28;20205;-79
2021/03/27 06:46:55;;;;;;;8.63;7.30;;;7.60;1.00;;;;;;4874613;28;20208;-77
2021/03/27 06:50:05;;;;;;;9.23;8.33;;;7.90;1.00;;;;;;4824799;28;20197;-78
2021/03/27 06:53:10;;;;;;;9.37;7.47;;;8.20;99.90;;;;;;4878731;28;20560;-77
2021/03/27 06:55:57;;;;;;;8.70;7.57;;;8.50;99.90;;;;;;4803018;28;20756;-79
2021/03/27 06:58:56;;;;;;;8.07;7.27;;;8.90;1.00;;;;;;4870472;28;20662;-82
2021/03/27 07:01:56;;;;;;;8.53;7.67;;;9.20;1.00;;;;;;4876245;28;20205;-84
2021/03/27 07:04:52;;;;;;;7.33;6.30;;;9.60;1.00;;;;;;4877512;28;20193;-83
2021/03/27 07:07:57;;;;;;;7.07;6.37;;;9.80;1.00;;;;;;4872532;28;20181;-86
2021/03/27 07:11:11;;;;;;;7.20;6.50;;;10.00;1.00;;;;;;4854708;28;20225;-85
2021/03/27 07:14:27;;;;;;;7.30;6.57;;;10.30;1.00;;;;;;4877537;28;20678;-84
2021/03/27 07:17:14;;;;;;;6.37;5.80;;;10.50;1.00;;;;;;4850048;28;20233;-85
2021/03/27 07:20:08;;;;;;;6.50;5.80;;;10.70;1.00;;;;;;4860947;28;20680;-85
2021/03/27 07:23:03;;;;;;;6.47;5.87;;;11.00;1.00;;;;;;4860778;28;20782;-85
2021/03/27 07:25:58;;;;;;;5.97;5.47;;;11.30;1.00;;;;;;4877718;28;20206;-83
2021/03/27 07:28:46;;;;;;;5.17;4.73;;;11.60;1.00;;;;;;4877206;28;20650;-83
2021/03/27 07:31:19;;;;;;;5.00;4.60;;;11.90;1.00;;;;;;4877817;28;20185;-84
2021/03/27 07:34:19;;;;;;;4.37;3.97;;;12.00;1.00;;;;;;4876646;28;20702;-84
2021/03/27 07:37:10;;;;;;;4.57;4.13;;;12.30;1.00;;;;;;4878577;28;20205;-83
2021/03/27 07:40:00;;;;;;;4.20;3.90;;;12.50;1.00;;;;;;4876947;28;20235;-80
2021/03/27 07:42:53;;;;;;;4.37;3.97;;;12.70;1.00;;;;;;4857437;28;20193;-80
2021/03/27 07:45:39;;;;;;;4.93;4.47;;;12.80;1.00;;;;;;4844041;28;20616;-82
2021/03/27 07:48:24;;;;;;;4.37;4.00;;;13.00;1.00;;;;;;4844463;28;20199;-84
2021/03/27 07:50:58;;;;;;;4.10;3.70;;;13.10;1.00;;;;;;4876033;28;20201;-75
2021/03/27 07:53:44;;;;;;;3.80;3.50;;;13.20;1.00;;;;;;4878601;28;20204;-87
2021/03/27 07:56:39;;;;;;;4.10;3.70;;;13.40;1.00;;;;;;4878112;28;20246;-82
2021/03/27 07:59:39;;;;;;;3.67;3.40;;;13.50;1.00;;;;;;4878427;28;20186;-80
2021/03/27 08:02:26;;;;;;;4.07;3.67;;;13.60;1.00;;;;;;4865668;28;20224;-84
2021/03/27 08:05:16;;;;;;;3.70;3.33;;;13.80;1.00;;;;;;4873177;28;20617;-80
2021/03/27 08:07:57;;;;;;;3.03;2.83;;;14.00;1.00;;;;;;4842783;28;20195;-79
2021/03/27 08:10:44;;;;;;;3.60;3.30;;;14.20;1.00;;;;;;4877792;28;20271;-82
2021/03/27 08:13:51;;;;;;;3.00;2.80;;;14.50;99.90;;;;;;4875833;28;20259;-78
2021/03/27 08:16:45;;;;;;;3.40;3.10;;;14.70;99.90;;;;;;4785117;28;20264;-85
2021/03/27 08:19:41;;;;;;;3.17;2.90;;;14.90;99.90;;;;;;4858160;28;20605;-79
2021/03/27 08:22:24;;;;;;;3.17;2.90;;;15.10;99.90;;;;;;4844015;28;20653;-79
2021/03/27 08:24:52;;;;;;;3.50;3.23;;;15.20;99.90;;;;;;4875213;28;20201;-79
2021/03/27 08:27:41;;;;;;;2.80;2.60;;;15.20;99.90;;;;;;4859327;28;20190;-78
2021/03/27 08:30:42;;;;;;;2.60;2.40;;;15.40;99.90;;;;;;4877326;28;20178;-80
2021/03/27 08:33:32;;;;;;;2.83;2.50;;;15.50;99.90;;;;;;4841608;28;20194;-83
2021/03/27 08:36:23;;;;;;;2.30;2.10;;;15.90;99.90;;;;;;4876684;28;20209;-77
2021/03/27 08:39:13;;;;;;;2.10;2.00;;;16.50;99.90;;;;;;4875773;28;20287;-80
2021/03/27 08:42:01;;;;;;;1.80;1.70;;;17.10;99.90;;;;;;4858791;28;20227;-80
2021/03/27 08:44:58;;;;;;;1.57;1.47;;;17.70;99.90;;;;;;4840377;28;20198;-77
2021/03/27 08:47:42;;;;;;;2.67;1.50;;;17.90;99.90;;;;;;4856165;28;20197;-78
2021/03/27 08:50:50;;;;;;;1.57;1.47;;;17.90;99.90;;;;;;4840438;28;20220;-79
2021/03/27 08:53:35;;;;;;;1.10;1.10;;;17.80;99.90;;;;;;4851861;28;20193;-77
2021/03/27 08:56:34;;;;;;;0.87;0.87;;;17.70;99.90;;;;;;4875512;28;20307;-75
2021/03/27 08:59:42;;;;;;;0.80;0.80;;;17.90;99.90;;;;;;4839791;28;20205;-76
2021/03/27 09:02:36;;;;;;;0.60;0.60;;;17.90;99.90;;;;;;4871087;28;20205;-74
2021/03/27 09:05:20;;;;;;;0.83;0.83;;;18.10;99.90;;;;;;4860819;28;20216;-78
2021/03/27 09:08:09;;;;;;;0.67;0.67;;;18.30;99.90;;;;;;4878476;28;20258;-75
2021/03/27 09:10:59;;;;;;;0.60;0.60;;;18.60;99.90;;;;;;4858500;28;20234;-76
2021/03/27 09:13:46;;;;;;;0.67;0.67;;;18.90;99.90;;;;;;4838692;28;20218;-77
2021/03/27 09:16:41;;;;;;;0.63;0.60;;;19.20;99.90;;;;;;4862494;28;20205;-75
2021/03/27 09:19:32;;;;;;;0.50;0.50;;;19.70;99.90;;;;;;4875627;28;20239;-77
2021/03/27 09:22:14;;;;;;;0.40;0.40;;;20.20;99.90;;;;;;4872947;28;20189;-73
2021/03/27 09:24:42;;;;;;;0.30;0.30;;;20.90;99.90;;;;;;4875072;28;20663;-76
2021/03/27 09:27:36;;;;;;;0.33;0.33;;;22.10;99.90;;;;;;4874709;28;20201;-77
2021/03/27 09:30:20;;;;;;;0.20;0.20;;;23.60;99.90;;;;;;4873756;28;20247;-76
2021/03/27 09:32:51;;;;;;;0.20;0.20;;;26.20;99.90;;;;;;4874901;28;20590;-77
2021/03/27 09:35:43;;;;;;;0.30;0.30;;;27.80;99.90;;;;;;4874642;28;20189;-76
2021/03/27 09:38:17;;;;;;;0.30;0.30;;;28.90;99.90;;;;;;4875019;28;20208;-79
2021/03/27 09:40:55;;;;;;;0.30;0.30;;;29.50;99.90;;;;;;4873541;28;20204;-80
2021/03/27 09:43:44;;;;;;;0.20;0.20;;;29.70;99.90;;;;;;4877905;28;20185;-75
2021/03/27 09:46:14;;;;;;;0.20;0.20;;;30.40;99.90;;;;;;4879613;28;20183;-72
2021/03/27 09:48:54;;;;;;;0.30;0.30;;;30.20;99.90;;;;;;4878049;28;20668;-74
2021/03/27 09:51:24;;;;;;;0.10;0.10;;;29.10;99.90;;;;;;4878700;28;20173;-79
2021/03/27 09:53:57;;;;;;;0.20;0.20;;;29.10;99.90;;;;;;4861971;28;20198;-72
2021/03/27 09:56:32;;;;;;;0.30;0.30;;;28.90;99.90;;;;;;4845041;28;20229;-78
2021/03/27 09:59:16;;;;;;;0.20;0.20;;;28.30;99.90;;;;;;4879727;28;20541;-76
2021/03/27 10:01:42;;;;;;;0.30;0.30;;;27.70;99.90;;;;;;4874398;28;20542;-75
2021/03/27 10:04:27;;;;;;;0.20;0.20;;;26.80;99.90;;;;;;4878614;28;20296;-74
2021/03/27 10:07:18;;;;;;;0.20;0.20;;;26.40;99.90;;;;;;4878669;28;20291;-79
2021/03/27 10:10:06;;;;;;;0.20;0.20;;;25.90;99.90;;;;;;4861856;28;20198;-77
2021/03/27 10:12:35;;;;;;;0.20;0.20;;;25.10;99.90;;;;;;4875844;28;20724;-80
2021/03/27 10:15:02;;;;;;;0.20;0.20;;;23.90;99.90;;;;;;4862301;28;20265;-78
2021/03/27 10:17:30;;;;;;;0.20;0.20;;;22.80;99.90;;;;;;4845325;28;20249;-78
2021/03/27 10:19:59;;;;;;;0.20;0.20;;;22.00;99.90;;;;;;4879548;28;20182;-79
2021/03/27 10:22:39;;;;;;;0.20;0.20;;;21.40;99.90;;;;;;4878521;28;20235;-79
2021/03/27 10:25:08;;;;;;;0.30;0.30;;;21.00;99.90;;;;;;4879709;28;20614;-73
2021/03/27 10:27:40;;;;;;;0.20;0.20;;;20.80;99.90;;;;;;4878493;28;20200;-73
2021/03/27 10:30:19;;;;;;;0.30;0.30;;;21.00;99.90;;;;;;4877543;28;20180;-74
2021/03/27 10:33:13;;;;;;;0.23;0.23;;;21.50;99.90;;;;;;4871907;28;20189;-79
2021/03/27 10:36:21;;;;;;;0.30;0.30;;;22.20;99.90;;;;;;4870850;28;20193;-86
2021/03/27 10:39:22;;;;;;;0.20;0.20;;;23.10;99.90;;;;;;4834609;28;20243;-82
2021/03/27 10:42:07;;;;;;;0.20;0.20;;;23.70;99.90;;;;;;4878901;28;20271;-83
2021/03/27 10:44:59;;;;;;;0.20;0.20;;;24.00;99.90;;;;;;4878773;28;20184;-78
2021/03/27 10:47:32;;;;;;;0.30;0.30;;;24.30;99.90;;;;;;4878815;28;20177;-73
2021/03/27 10:50:08;;;;;;;0.20;0.20;;;23.70;99.90;;;;;;4877372;28;20192;-79
2021/03/27 10:53:05;;;;;;;0.30;0.30;;;23.20;99.90;;;;;;4877182;28;20203;-83
2021/03/27 10:56:13;;;;;;;0.30;0.30;;;23.00;99.90;;;;;;4855761;28;20265;-80
2021/03/27 10:59:12;;;;;;;0.20;0.20;;;23.20;99.90;;;;;;4851151;28;20200;-78
2021/03/27 11:02:12;;;;;;;0.20;0.20;;;24.00;99.90;;;;;;4854585;28;20620;-77
2021/03/27 11:05:20;;;;;;;0.20;0.20;;;24.70;99.90;;;;;;4876749;28;20199;-79
2021/03/27 11:08:19;;;;;;;0.27;0.27;;;25.20;99.90;;;;;;4875484;28;20298;-74
2021/03/27 11:11:20;;;;;;;0.20;0.20;;;25.00;99.90;;;;;;4838493;28;20266;-76
2021/03/27 11:14:26;;;;;;;0.20;0.20;;;24.30;99.90;;;;;;4764753;29;20211;-75
2021/03/27 11:17:25;;;;;;;0.20;0.20;;;23.50;99.90;;;;;;4749083;29;20520;-81
2021/03/27 11:20:31;;;;;;;0.20;0.20;;;23.00;99.90;;;;;;4794954;28;20342;-79
2021/03/27 11:23:31;;;;;;;0.20;0.20;;;22.90;99.90;;;;;;4850327;28;20304;-79
2021/03/27 11:26:38;;;;;;;0.20;0.20;;;23.20;99.90;;;;;;4876305;28;20182;-81
2021/03/27 11:29:27;;;;;;;0.20;0.20;;;25.30;99.90;;;;;;4875878;28;20570;-79
2021/03/27 11:31:56;;;;;;;0.20;0.20;;;28.60;99.90;;;;;;4859481;28;20284;-77
2021/03/27 11:34:27;;;;;;;0.20;0.20;;;30.90;99.90;;;;;;4877993;28;20272;-83
2021/03/27 11:37:02;;;;;;;0.20;0.20;;;32.80;99.90;;;;;;4876677;28;20237;-82
2021/03/27 11:39:36;;;;;;;0.20;0.20;;;33.60;99.90;;;;;;4874426;28;20204;-85
2021/03/27 11:42:11;;;;;;;0.20;0.20;;;34.30;99.90;;;;;;4871448;28;20210;-80
2021/03/27 11:44:47;;;;;;;0.15;0.15;;;34.30;99.90;;;;;;4856442;28;20193;-79
2021/03/27 11:47:24;;;;;;;0.20;0.20;;;33.30;99.90;;;;;;4874555;28;20310;-77
2021/03/27 11:49:51;;;;;;;0.20;0.20;;;31.90;99.90;;;;;;4876031;28;20181;-82
2021/03/27 11:52:23;;;;;;;0.20;0.20;;;30.40;99.90;;;;;;4874355;28;20852;-82
2021/03/27 11:54:54;;;;;;;0.20;0.20;;;29.00;99.90;;;;;;4859228;28;20556;-78
2021/03/27 11:57:44;;;;;;;0.20;0.20;;;27.40;99.90;;;;;;4877718;28;20211;-83
2021/03/27 12:01:00;;;;;;;0.20;0.20;;;26.30;99.90;;;;;;4876218;28;20173;-82
2021/03/27 12:03:40;;;;;;;0.27;0.27;;;26.20;99.90;;;;;;4858221;28;20655;-85
2021/03/27 12:06:19;;;;;;;0.20;0.20;;;26.10;99.90;;;;;;4861525;28;20709;-79
2021/03/27 12:08:58;;;;;;;0.20;0.20;;;25.90;99.90;;;;;;4867365;28;20205;-78
2021/03/27 12:11:30;;;;;;;0.30;0.30;;;25.50;99.90;;;;;;4874861;28;20218;-75
2021/03/27 12:14:05;;;;;;;0.30;0.30;;;24.80;99.90;;;;;;4856316;28;20237;-79
2021/03/27 12:16:41;;;;;;;0.20;0.20;;;24.30;99.90;;;;;;4875831;28;20243;-83
2021/03/27 12:19:33;;;;;;;0.20;0.20;;;23.80;99.90;;;;;;4876859;28;20208;-81
2021/03/27 12:22:06;;;;;;;0.20;0.20;;;23.30;99.90;;;;;;4855709;28;20771;-84
2021/03/27 12:24:44;;;;;;;0.20;0.20;;;23.10;99.90;;;;;;4865072;28;20294;-80
2021/03/27 12:27:22;;;;;;;0.27;0.27;;;23.70;99.90;;;;;;4870308;28;20206;-81
2021/03/27 12:30:03;;;;;;;0.20;0.20;;;24.30;99.90;;;;;;4875379;28;20241;-86
2021/03/27 12:32:47;;;;;;;0.30;0.30;;;24.80;99.90;;;;;;4871770;28;20192;-73
2021/03/27 12:35:32;;;;;;;0.37;0.37;;;25.50;99.90;;;;;;4872412;28;20201;-75
2021/03/27 12:38:24;;;;;;;0.27;0.27;;;26.10;99.90;;;;;;4874274;28;20575;-79
2021/03/27 12:41:05;;;;;;;0.30;0.30;;;25.80;99.90;;;;;;4864401;28;20226;-81
2021/03/27 12:43:37;;;;;;;0.30;0.30;;;25.60;99.90;;;;;;4874611;28;20679;-75
2021/03/27 12:46:18;;;;;;;0.30;0.30;;;25.40;99.90;;;;;;4875906;28;20466;-73
2021/03/27 12:49:08;;;;;;;0.10;0.10;;;25.00;99.90;;;;;;4841047;28;20241;-81
2021/03/27 12:51:47;;;;;;;0.30;0.30;;;24.30;99.90;;;;;;4876058;28;20574;-80
2021/03/27 12:54:39;;;;;;;0.20;0.20;;;23.80;99.90;;;;;;4855575;28;20198;-78
2021/03/27 12:57:24;;;;;;;0.20;0.20;;;23.50;99.90;;;;;;4865363;28;20293;-84
2021/03/27 13:00:01;;;;;;;0.20;0.20;;;23.20;99.90;;;;;;4839472;28;20208;-83
2021/03/27 13:02:46;;;;;;;0.30;0.30;;;22.90;99.90;;;;;;4858945;28;20190;-79
2021/03/27 13:05:24;;;;;;;0.20;0.20;;;22.60;99.90;;;;;;4871058;28;20193;-77
2021/03/27 13:07:59;;;;;;;0.20;0.20;;;22.20;99.90;;;;;;4858568;28;20316;-81
2021/03/27 13:10:47;;;;;;;0.20;0.20;;;22.00;99.90;;;;;;4875752;28;20205;-87
2021/03/27 13:13:45;;;;;;;0.20;0.20;;;22.30;99.90;;;;;;4891525;28;20273;-81
2021/03/27 13:16:24;;;;;;;0.30;0.30;;;22.30;99.90;;;;;;4852170;28;20231;-80
2021/03/27 13:19:00;;;;;;;0.20;0.20;;;22.20;99.90;;;;;;4874540;28;20654;-81
2021/03/27 13:21:35;;;;;;;0.20;0.20;;;22.40;99.90;;;;;;4876014;28;20180;-80
2021/03/27 13:24:15;;;;;;;0.40;0.30;;;22.70;99.90;;;;;;4858047;28;20195;-77
2021/03/27 13:26:42;;;;;;;0.30;0.30;;;22.90;99.90;;;;;;4857388;28;20231;-77
2021/03/27 13:29:34;;;;;;;0.20;0.20;;;23.00;99.90;;;;;;4876327;28;20192;-82
2021/03/27 13:31:59;;;;;;;0.20;0.20;;;22.90;99.90;;;;;;4873213;28;20204;-79
2021/03/27 13:34:33;;;;;;;0.20;0.20;;;22.50;99.90;;;;;;4876419;28;20182;-81
2021/03/27 13:37:07;;;;;;;0.30;0.30;;;22.30;99.90;;;;;;4865610;28;20202;-83
2021/03/27 13:39:37;;;;;;;0.20;0.20;;;21.90;99.90;;;;;;4873820;28;20278;-88
2021/03/27 13:42:29;;;;;;;0.30;0.30;;;21.40;99.90;;;;;;4874977;28;20200;-82
2021/03/27 13:45:09;;;;;;;0.20;0.20;;;21.00;99.90;;;;;;4887759;28;20705;-79
2021/03/27 13:47:47;;;;;;;0.20;0.20;;;20.50;99.90;;;;;;4877030;28;20216;-85
2021/03/27 13:50:37;;;;;;;0.20;0.20;;;20.10;99.90;;;;;;4878376;28;20180;-79
2021/03/27 13:53:16;;;;;;;0.33;0.33;;;19.70;99.90;;;;;;4869207;28;20197;-80
2021/03/27 13:55:50;;;;;;;0.20;0.20;;;19.50;99.90;;;;;;4859973;28;20197;-79
2021/03/27 13:58:21;;;;;;;0.20;0.20;;;19.60;99.90;;;;;;4857634;28;20221;-81
2021/03/27 14:00:55;;;;;;;0.20;0.20;;;19.70;99.90;;;;;;4843755;28;20228;-75
2021/03/27 14:03:48;;;;;;;0.20;0.20;;;19.80;99.90;;;;;;4859100;28;20258;-78
2021/03/27 14:06:24;;;;;;;0.20;0.20;;;19.70;99.90;;;;;;4874967;28;20275;-84